sensor_id;sensor_type;location;lat;lon;timestamp;P1;durP1;ratioP1;P2;durP2;ratioP2
67904;SDS011;54709;43.614;1.576;2023-01-08T00:01:56;20.75;;;7.47;;
67904;SDS011;54709;43.614;1.576;2023-01-08T00:04:21;22.38;;;8.07;;
67904;SDS011;54709;43.614;1.576;2023-01-08T00:06:47;17.40;;;8.48;;
67904;SDS011;54709;43.614;1.576;2023-01-08T00:09:12;22.02;;;10.30;;
67904;SDS011;54709;43.614;1.576;2023-01-08T00:11:38;22.33;;;10.85;;
67904;SDS011;54709;43.614;1.576;2023-01-08T00:14:03;18.25;;;10.15;;
67904;SDS011;54709;43.614;1.576;2023-01-08T00:16:29;23.98;;;9.32;;
67904;SDS011;54709;43.614;1.576;2023-01-08T00:18:55;17.80;;;8.77;;
67904;SDS011;54709;43.614;1.576;2023-01-08T00:21:20;20.85;;;9.20;;
67904;SDS011;54709;43.614;1.576;2023-01-08T00:23:46;18.60;;;7.13;;
67904;SDS011;54709;43.614;1.576;2023-01-08T00:26:11;14.60;;;7.78;;
67904;SDS011;54709;43.614;1.576;2023-01-08T00:28:38;17.92;;;7.57;;
67904;SDS011;54709;43.614;1.576;2023-01-08T00:31:04;17.73;;;7.20;;
67904;SDS011;54709;43.614;1.576;2023-01-08T00:33:30;16.80;;;7.05;;
67904;SDS011;54709;43.614;1.576;2023-01-08T00:35:56;15.43;;;6.35;;
67904;SDS011;54709;43.614;1.576;2023-01-08T00:38:28;14.80;;;6.47;;
67904;SDS011;54709;43.614;1.576;2023-01-08T00:43:19;18.25;;;6.28;;
67904;SDS011;54709;43.614;1.576;2023-01-08T00:45:44;20.35;;;6.57;;
67904;SDS011;54709;43.614;1.576;2023-01-08T00:48:10;15.05;;;6.07;;
67904;SDS011;54709;43.614;1.576;2023-01-08T00:50:35;18.58;;;6.50;;
67904;SDS011;54709;43.614;1.576;2023-01-08T00:53:01;14.38;;;6.50;;
67904;SDS011;54709;43.614;1.576;2023-01-08T00:55:27;18.42;;;6.50;;
67904;SDS011;54709;43.614;1.576;2023-01-08T00:57:53;18.45;;;6.28;;
67904;SDS011;54709;43.614;1.576;2023-01-08T01:00:19;22.05;;;6.03;;
67904;SDS011;54709;43.614;1.576;2023-01-08T01:02:44;20.65;;;6.32;;
67904;SDS011;54709;43.614;1.576;2023-01-08T01:05:10;16.30;;;5.75;;
67904;SDS011;54709;43.614;1.576;2023-01-08T01:07:39;19.60;;;5.55;;
67904;SDS011;54709;43.614;1.576;2023-01-08T01:10:05;16.70;;;5.63;;
67904;SDS011;54709;43.614;1.576;2023-01-08T01:12:31;16.42;;;6.32;;
67904;SDS011;54709;43.614;1.576;2023-01-08T01:14:56;21.17;;;6.07;;
67904;SDS011;54709;43.614;1.576;2023-01-08T01:17:22;17.35;;;6.15;;
67904;SDS011;54709;43.614;1.576;2023-01-08T01:19:47;19.35;;;7.35;;
67904;SDS011;54709;43.614;1.576;2023-01-08T01:22:13;16.98;;;6.57;;
67904;SDS011;54709;43.614;1.576;2023-01-08T01:24:38;20.42;;;7.10;;
67904;SDS011;54709;43.614;1.576;2023-01-08T01:27:03;17.70;;;6.63;;
67904;SDS011;54709;43.614;1.576;2023-01-08T01:29:29;15.85;;;5.97;;
67904;SDS011;54709;43.614;1.576;2023-01-08T01:31:54;16.42;;;6.15;;
67904;SDS011;54709;43.614;1.576;2023-01-08T01:34:19;19.58;;;5.88;;
67904;SDS011;54709;43.614;1.576;2023-01-08T01:36:45;18.58;;;6.40;;
67904;SDS011;54709;43.614;1.576;2023-01-08T01:39:10;21.65;;;6.13;;
67904;SDS011;54709;43.614;1.576;2023-01-08T01:41:37;19.63;;;6.35;;
67904;SDS011;54709;43.614;1.576;2023-01-08T01:52:20;20.75;;;6.30;;
67904;SDS011;54709;43.614;1.576;2023-01-08T01:54:47;16.13;;;6.13;;
67904;SDS011;54709;43.614;1.576;2023-01-08T01:57:13;15.00;;;5.35;;
67904;SDS011;54709;43.614;1.576;2023-01-08T01:59:39;21.35;;;6.25;;
67904;SDS011;54709;43.614;1.576;2023-01-08T02:02:06;16.30;;;5.55;;
67904;SDS011;54709;43.614;1.576;2023-01-08T02:04:31;17.25;;;5.82;;
67904;SDS011;54709;43.614;1.576;2023-01-08T02:17:35;14.35;;;6.10;;
67904;SDS011;54709;43.614;1.576;2023-01-08T02:28:16;16.42;;;6.10;;
67904;SDS011;54709;43.614;1.576;2023-01-08T02:30:43;16.85;;;5.97;;
67904;SDS011;54709;43.614;1.576;2023-01-08T02:33:08;15.68;;;5.47;;
67904;SDS011;54709;43.614;1.576;2023-01-08T02:35:36;16.10;;;5.57;;
67904;SDS011;54709;43.614;1.576;2023-01-08T02:38:04;20.92;;;5.88;;
67904;SDS011;54709;43.614;1.576;2023-01-08T02:40:31;15.68;;;5.60;;
67904;SDS011;54709;43.614;1.576;2023-01-08T02:43:13;13.35;;;5.50;;
67904;SDS011;54709;43.614;1.576;2023-01-08T02:45:49;17.00;;;5.38;;
67904;SDS011;54709;43.614;1.576;2023-01-08T02:48:32;12.73;;;5.65;;
67904;SDS011;54709;43.614;1.576;2023-01-08T02:51:05;19.50;;;5.45;;
67904;SDS011;54709;43.614;1.576;2023-01-08T02:53:38;17.42;;;5.68;;
67904;SDS011;54709;43.614;1.576;2023-01-08T02:56:07;13.25;;;5.10;;
67904;SDS011;54709;43.614;1.576;2023-01-08T02:58:38;15.05;;;5.22;;
67904;SDS011;54709;43.614;1.576;2023-01-08T03:01:05;15.48;;;5.78;;
67904;SDS011;54709;43.614;1.576;2023-01-08T03:03:33;16.70;;;5.95;;
67904;SDS011;54709;43.614;1.576;2023-01-08T03:06:03;15.50;;;5.82;;
67904;SDS011;54709;43.614;1.576;2023-01-08T03:08:31;13.63;;;5.68;;
67904;SDS011;54709;43.614;1.576;2023-01-08T03:11:02;12.82;;;5.53;;
67904;SDS011;54709;43.614;1.576;2023-01-08T03:16:41;15.52;;;5.28;;
67904;SDS011;54709;43.614;1.576;2023-01-08T03:19:23;13.18;;;5.28;;
67904;SDS011;54709;43.614;1.576;2023-01-08T03:21:50;18.20;;;5.22;;
67904;SDS011;54709;43.614;1.576;2023-01-08T03:24:21;13.60;;;5.28;;
67904;SDS011;54709;43.614;1.576;2023-01-08T03:26:47;14.88;;;5.38;;
67904;SDS011;54709;43.614;1.576;2023-01-08T03:29:15;20.17;;;6.10;;
67904;SDS011;54709;43.614;1.576;2023-01-08T03:31:42;18.30;;;6.10;;
67904;SDS011;54709;43.614;1.576;2023-01-08T03:34:09;18.45;;;6.68;;
67904;SDS011;54709;43.614;1.576;2023-01-08T03:36:35;20.05;;;7.15;;
67904;SDS011;54709;43.614;1.576;2023-01-08T03:39:04;20.67;;;6.90;;
67904;SDS011;54709;43.614;1.576;2023-01-08T03:41:33;18.00;;;7.30;;
67904;SDS011;54709;43.614;1.576;2023-01-08T03:44:00;16.92;;;6.70;;
67904;SDS011;54709;43.614;1.576;2023-01-08T03:46:32;14.13;;;6.65;;
67904;SDS011;54709;43.614;1.576;2023-01-08T03:48:59;20.45;;;7.43;;
67904;SDS011;54709;43.614;1.576;2023-01-08T03:51:25;22.65;;;7.50;;
67904;SDS011;54709;43.614;1.576;2023-01-08T03:53:51;18.55;;;7.20;;
67904;SDS011;54709;43.614;1.576;2023-01-08T03:56:18;14.55;;;6.93;;
67904;SDS011;54709;43.614;1.576;2023-01-08T03:58:43;18.17;;;7.25;;
67904;SDS011;54709;43.614;1.576;2023-01-08T04:01:09;16.48;;;6.93;;
67904;SDS011;54709;43.614;1.576;2023-01-08T04:03:34;16.30;;;6.70;;
67904;SDS011;54709;43.614;1.576;2023-01-08T04:06:00;17.98;;;7.95;;
67904;SDS011;54709;43.614;1.576;2023-01-08T04:08:25;24.23;;;8.05;;
67904;SDS011;54709;43.614;1.576;2023-01-08T04:10:51;16.42;;;7.97;;
67904;SDS011;54709;43.614;1.576;2023-01-08T04:13:16;19.55;;;8.25;;
67904;SDS011;54709;43.614;1.576;2023-01-08T04:15:46;20.77;;;8.07;;
67904;SDS011;54709;43.614;1.576;2023-01-08T04:18:13;17.30;;;8.40;;
67904;SDS011;54709;43.614;1.576;2023-01-08T04:20:38;16.80;;;8.20;;
67904;SDS011;54709;43.614;1.576;2023-01-08T04:23:04;17.45;;;7.70;;
67904;SDS011;54709;43.614;1.576;2023-01-08T04:25:29;16.77;;;7.97;;
67904;SDS011;54709;43.614;1.576;2023-01-08T04:27:54;17.92;;;7.80;;
67904;SDS011;54709;43.614;1.576;2023-01-08T04:30:20;19.40;;;7.95;;
67904;SDS011;54709;43.614;1.576;2023-01-08T04:32:45;14.50;;;7.50;;
67904;SDS011;54709;43.614;1.576;2023-01-08T04:35:11;12.90;;;7.53;;
67904;SDS011;54709;43.614;1.576;2023-01-08T04:37:36;16.85;;;7.70;;
67904;SDS011;54709;43.614;1.576;2023-01-08T04:40:02;18.63;;;7.97;;
67904;SDS011;54709;43.614;1.576;2023-01-08T04:42:27;19.70;;;8.35;;
67904;SDS011;54709;43.614;1.576;2023-01-08T04:44:52;15.65;;;7.63;;
67904;SDS011;54709;43.614;1.576;2023-01-08T04:47:18;14.60;;;7.72;;
67904;SDS011;54709;43.614;1.576;2023-01-08T04:49:43;15.07;;;7.25;;
67904;SDS011;54709;43.614;1.576;2023-01-08T04:52:09;13.65;;;7.82;;
67904;SDS011;54709;43.614;1.576;2023-01-08T04:54:34;15.85;;;7.35;;
67904;SDS011;54709;43.614;1.576;2023-01-08T04:56:59;18.73;;;8.40;;
67904;SDS011;54709;43.614;1.576;2023-01-08T04:59:25;16.63;;;8.35;;
67904;SDS011;54709;43.614;1.576;2023-01-08T05:01:50;15.82;;;8.18;;
67904;SDS011;54709;43.614;1.576;2023-01-08T05:04:16;15.63;;;7.50;;
67904;SDS011;54709;43.614;1.576;2023-01-08T05:06:41;13.80;;;7.88;;
67904;SDS011;54709;43.614;1.576;2023-01-08T05:09:06;19.50;;;8.45;;
67904;SDS011;54709;43.614;1.576;2023-01-08T05:11:32;18.88;;;8.57;;
67904;SDS011;54709;43.614;1.576;2023-01-08T05:13:57;19.30;;;8.60;;
67904;SDS011;54709;43.614;1.576;2023-01-08T05:16:23;16.38;;;8.60;;
67904;SDS011;54709;43.614;1.576;2023-01-08T05:18:48;14.98;;;7.93;;
67904;SDS011;54709;43.614;1.576;2023-01-08T05:21:14;16.75;;;8.73;;
67904;SDS011;54709;43.614;1.576;2023-01-08T05:23:42;19.20;;;9.68;;
67904;SDS011;54709;43.614;1.576;2023-01-08T05:26:09;21.27;;;9.02;;
67904;SDS011;54709;43.614;1.576;2023-01-08T05:28:34;19.15;;;8.35;;
67904;SDS011;54709;43.614;1.576;2023-01-08T05:31:00;18.83;;;8.48;;
67904;SDS011;54709;43.614;1.576;2023-01-08T05:33:25;15.85;;;8.38;;
67904;SDS011;54709;43.614;1.576;2023-01-08T05:35:51;18.88;;;9.05;;
67904;SDS011;54709;43.614;1.576;2023-01-08T05:38:16;15.27;;;9.15;;
67904;SDS011;54709;43.614;1.576;2023-01-08T05:40:42;18.55;;;9.10;;
67904;SDS011;54709;43.614;1.576;2023-01-08T05:43:07;20.02;;;9.82;;
67904;SDS011;54709;43.614;1.576;2023-01-08T05:45:33;19.33;;;8.57;;
67904;SDS011;54709;43.614;1.576;2023-01-08T05:47:59;17.90;;;9.38;;
67904;SDS011;54709;43.614;1.576;2023-01-08T05:50:25;20.48;;;10.18;;
67904;SDS011;54709;43.614;1.576;2023-01-08T05:52:50;19.00;;;10.15;;
67904;SDS011;54709;43.614;1.576;2023-01-08T05:55:16;22.33;;;10.02;;
67904;SDS011;54709;43.614;1.576;2023-01-08T05:57:41;19.05;;;10.10;;
67904;SDS011;54709;43.614;1.576;2023-01-08T06:00:07;17.27;;;9.55;;
67904;SDS011;54709;43.614;1.576;2023-01-08T06:02:34;21.33;;;10.05;;
67904;SDS011;54709;43.614;1.576;2023-01-08T06:04:59;15.68;;;9.43;;
67904;SDS011;54709;43.614;1.576;2023-01-08T06:07:25;14.90;;;9.90;;
67904;SDS011;54709;43.614;1.576;2023-01-08T06:09:50;16.60;;;9.40;;
67904;SDS011;54709;43.614;1.576;2023-01-08T06:12:16;13.63;;;9.35;;
67904;SDS011;54709;43.614;1.576;2023-01-08T06:14:42;19.77;;;8.90;;
67904;SDS011;54709;43.614;1.576;2023-01-08T06:17:07;12.50;;;8.63;;
67904;SDS011;54709;43.614;1.576;2023-01-08T06:19:33;13.95;;;9.07;;
67904;SDS011;54709;43.614;1.576;2023-01-08T06:21:58;14.40;;;9.75;;
67904;SDS011;54709;43.614;1.576;2023-01-08T06:24:23;12.38;;;8.55;;
67904;SDS011;54709;43.614;1.576;2023-01-08T06:26:49;11.30;;;8.93;;
67904;SDS011;54709;43.614;1.576;2023-01-08T06:29:14;12.52;;;8.30;;
67904;SDS011;54709;43.614;1.576;2023-01-08T06:31:40;16.33;;;8.85;;
67904;SDS011;54709;43.614;1.576;2023-01-08T06:34:05;18.05;;;9.18;;
67904;SDS011;54709;43.614;1.576;2023-01-08T06:36:31;11.73;;;8.85;;
67904;SDS011;54709;43.614;1.576;2023-01-08T06:38:56;14.65;;;8.80;;
67904;SDS011;54709;43.614;1.576;2023-01-08T06:41:21;14.23;;;9.02;;
67904;SDS011;54709;43.614;1.576;2023-01-08T06:43:47;12.90;;;8.48;;
67904;SDS011;54709;43.614;1.576;2023-01-08T06:46:12;13.57;;;8.52;;
67904;SDS011;54709;43.614;1.576;2023-01-08T06:48:38;11.07;;;8.00;;
67904;SDS011;54709;43.614;1.576;2023-01-08T06:51:04;11.90;;;8.13;;
67904;SDS011;54709;43.614;1.576;2023-01-08T06:53:30;11.57;;;8.20;;
67904;SDS011;54709;43.614;1.576;2023-01-08T06:55:56;12.52;;;8.48;;
67904;SDS011;54709;43.614;1.576;2023-01-08T06:58:23;15.98;;;8.93;;
67904;SDS011;54709;43.614;1.576;2023-01-08T07:00:49;11.32;;;8.25;;
67904;SDS011;54709;43.614;1.576;2023-01-08T07:03:14;14.48;;;9.10;;
67904;SDS011;54709;43.614;1.576;2023-01-08T07:05:39;12.90;;;8.45;;
67904;SDS011;54709;43.614;1.576;2023-01-08T07:08:05;11.73;;;7.72;;
67904;SDS011;54709;43.614;1.576;2023-01-08T07:10:30;34.65;;;9.48;;
67904;SDS011;54709;43.614;1.576;2023-01-08T07:12:56;18.20;;;9.13;;
67904;SDS011;54709;43.614;1.576;2023-01-08T07:15:22;18.45;;;8.55;;
67904;SDS011;54709;43.614;1.576;2023-01-08T07:17:47;14.77;;;9.40;;
67904;SDS011;54709;43.614;1.576;2023-01-08T07:20:13;13.98;;;9.43;;
67904;SDS011;54709;43.614;1.576;2023-01-08T07:22:38;12.95;;;8.70;;
67904;SDS011;54709;43.614;1.576;2023-01-08T07:25:04;16.92;;;8.77;;
67904;SDS011;54709;43.614;1.576;2023-01-08T07:27:31;14.98;;;8.82;;
67904;SDS011;54709;43.614;1.576;2023-01-08T07:29:56;12.38;;;8.48;;
67904;SDS011;54709;43.614;1.576;2023-01-08T07:32:22;13.15;;;9.32;;
67904;SDS011;54709;43.614;1.576;2023-01-08T07:34:47;11.82;;;9.10;;
67904;SDS011;54709;43.614;1.576;2023-01-08T07:37:13;17.30;;;9.52;;
67904;SDS011;54709;43.614;1.576;2023-01-08T07:39:38;12.13;;;8.65;;
67904;SDS011;54709;43.614;1.576;2023-01-08T07:42:03;13.35;;;9.00;;
67904;SDS011;54709;43.614;1.576;2023-01-08T07:44:29;14.60;;;9.00;;
67904;SDS011;54709;43.614;1.576;2023-01-08T07:46:54;17.23;;;9.63;;
67904;SDS011;54709;43.614;1.576;2023-01-08T07:49:20;18.77;;;9.73;;
67904;SDS011;54709;43.614;1.576;2023-01-08T07:51:47;15.55;;;9.57;;
67904;SDS011;54709;43.614;1.576;2023-01-08T07:54:13;13.23;;;8.85;;
67904;SDS011;54709;43.614;1.576;2023-01-08T07:56:38;11.90;;;8.38;;
67904;SDS011;54709;43.614;1.576;2023-01-08T07:59:04;11.98;;;8.57;;
67904;SDS011;54709;43.614;1.576;2023-01-08T08:01:29;10.45;;;7.95;;
67904;SDS011;54709;43.614;1.576;2023-01-08T08:03:55;11.40;;;8.07;;
67904;SDS011;54709;43.614;1.576;2023-01-08T08:06:20;12.20;;;8.38;;
67904;SDS011;54709;43.614;1.576;2023-01-08T08:08:45;13.95;;;8.95;;
67904;SDS011;54709;43.614;1.576;2023-01-08T08:11:11;11.20;;;7.60;;
67904;SDS011;54709;43.614;1.576;2023-01-08T08:13:36;10.43;;;7.80;;
67904;SDS011;54709;43.614;1.576;2023-01-08T08:16:06;10.68;;;7.90;;
67904;SDS011;54709;43.614;1.576;2023-01-08T08:18:32;11.43;;;8.18;;
67904;SDS011;54709;43.614;1.576;2023-01-08T08:20:57;13.15;;;8.77;;
67904;SDS011;54709;43.614;1.576;2023-01-08T08:23:22;11.98;;;8.30;;
67904;SDS011;54709;43.614;1.576;2023-01-08T08:25:48;12.95;;;8.85;;
67904;SDS011;54709;43.614;1.576;2023-01-08T08:28:15;14.30;;;9.02;;
67904;SDS011;54709;43.614;1.576;2023-01-08T08:30:41;16.02;;;9.93;;
67904;SDS011;54709;43.614;1.576;2023-01-08T08:33:06;16.33;;;9.82;;
67904;SDS011;54709;43.614;1.576;2023-01-08T08:35:32;16.92;;;10.73;;
67904;SDS011;54709;43.614;1.576;2023-01-08T08:37:58;16.10;;;10.55;;
67904;SDS011;54709;43.614;1.576;2023-01-08T08:40:24;18.45;;;10.75;;
67904;SDS011;54709;43.614;1.576;2023-01-08T08:43:00;18.55;;;10.55;;
67904;SDS011;54709;43.614;1.576;2023-01-08T08:45:28;15.73;;;10.52;;
67904;SDS011;54709;43.614;1.576;2023-01-08T08:47:54;14.85;;;9.23;;
67904;SDS011;54709;43.614;1.576;2023-01-08T08:50:20;15.32;;;10.00;;
67904;SDS011;54709;43.614;1.576;2023-01-08T08:52:45;16.85;;;9.30;;
67904;SDS011;54709;43.614;1.576;2023-01-08T08:55:12;17.63;;;9.35;;
67904;SDS011;54709;43.614;1.576;2023-01-08T08:57:40;14.63;;;8.02;;
67904;SDS011;54709;43.614;1.576;2023-01-08T09:00:05;13.20;;;7.95;;
67904;SDS011;54709;43.614;1.576;2023-01-08T09:02:31;14.05;;;7.88;;
67904;SDS011;54709;43.614;1.576;2023-01-08T09:04:56;13.48;;;7.75;;
67904;SDS011;54709;43.614;1.576;2023-01-08T09:07:22;8.70;;;6.70;;
67904;SDS011;54709;43.614;1.576;2023-01-08T09:09:47;12.13;;;6.70;;
67904;SDS011;54709;43.614;1.576;2023-01-08T09:12:12;10.43;;;6.25;;
67904;SDS011;54709;43.614;1.576;2023-01-08T09:14:38;10.13;;;6.45;;
67904;SDS011;54709;43.614;1.576;2023-01-08T09:17:03;11.65;;;6.15;;
67904;SDS011;54709;43.614;1.576;2023-01-08T09:19:29;11.07;;;6.03;;
67904;SDS011;54709;43.614;1.576;2023-01-08T09:21:54;12.45;;;6.78;;
67904;SDS011;54709;43.614;1.576;2023-01-08T09:24:19;14.40;;;9.18;;
67904;SDS011;54709;43.614;1.576;2023-01-08T09:26:45;11.38;;;7.60;;
67904;SDS011;54709;43.614;1.576;2023-01-08T09:29:10;11.35;;;7.15;;
67904;SDS011;54709;43.614;1.576;2023-01-08T09:31:35;7.82;;;5.43;;
67904;SDS011;54709;43.614;1.576;2023-01-08T09:34:01;8.93;;;5.68;;
67904;SDS011;54709;43.614;1.576;2023-01-08T09:36:26;9.85;;;5.60;;
67904;SDS011;54709;43.614;1.576;2023-01-08T09:38:52;9.63;;;5.55;;
67904;SDS011;54709;43.614;1.576;2023-01-08T09:41:18;10.93;;;5.88;;
67904;SDS011;54709;43.614;1.576;2023-01-08T09:43:52;9.57;;;5.80;;
67904;SDS011;54709;43.614;1.576;2023-01-08T09:46:20;10.45;;;5.40;;
67904;SDS011;54709;43.614;1.576;2023-01-08T09:48:46;8.43;;;5.80;;
67904;SDS011;54709;43.614;1.576;2023-01-08T09:51:12;8.02;;;5.68;;
67904;SDS011;54709;43.614;1.576;2023-01-08T09:53:39;11.52;;;5.32;;
67904;SDS011;54709;43.614;1.576;2023-01-08T09:56:09;9.40;;;5.40;;
67904;SDS011;54709;43.614;1.576;2023-01-08T09:58:36;10.50;;;5.78;;
67904;SDS011;54709;43.614;1.576;2023-01-08T10:01:03;10.57;;;5.47;;
67904;SDS011;54709;43.614;1.576;2023-01-08T10:03:38;11.23;;;5.50;;
67904;SDS011;54709;43.614;1.576;2023-01-08T10:06:09;13.32;;;6.85;;
67904;SDS011;54709;43.614;1.576;2023-01-08T10:08:38;10.00;;;6.00;;
67904;SDS011;54709;43.614;1.576;2023-01-08T10:11:04;12.05;;;6.57;;
67904;SDS011;54709;43.614;1.576;2023-01-08T10:13:30;11.15;;;5.90;;
67904;SDS011;54709;43.614;1.576;2023-01-08T10:15:57;9.07;;;5.38;;
67904;SDS011;54709;43.614;1.576;2023-01-08T10:18:23;15.15;;;6.55;;
67904;SDS011;54709;43.614;1.576;2023-01-08T10:20:50;11.85;;;6.20;;
67904;SDS011;54709;43.614;1.576;2023-01-08T10:23:16;12.20;;;6.03;;
67904;SDS011;54709;43.614;1.576;2023-01-08T10:25:50;12.85;;;5.85;;
67904;SDS011;54709;43.614;1.576;2023-01-08T10:28:27;12.88;;;5.65;;
67904;SDS011;54709;43.614;1.576;2023-01-08T10:31:03;13.55;;;5.88;;
67904;SDS011;54709;43.614;1.576;2023-01-08T10:33:35;14.82;;;6.53;;
67904;SDS011;54709;43.614;1.576;2023-01-08T10:36:05;17.25;;;5.90;;
67904;SDS011;54709;43.614;1.576;2023-01-08T10:38:33;16.30;;;5.63;;
67904;SDS011;54709;43.614;1.576;2023-01-08T10:41:00;12.38;;;6.38;;
67904;SDS011;54709;43.614;1.576;2023-01-08T10:43:28;14.13;;;5.90;;
67904;SDS011;54709;43.614;1.576;2023-01-08T10:46:00;17.88;;;6.50;;
67904;SDS011;54709;43.614;1.576;2023-01-08T10:48:38;15.85;;;6.40;;
67904;SDS011;54709;43.614;1.576;2023-01-08T10:51:21;18.13;;;6.82;;
67904;SDS011;54709;43.614;1.576;2023-01-08T10:53:48;12.05;;;5.95;;
67904;SDS011;54709;43.614;1.576;2023-01-08T10:58:42;13.50;;;6.18;;
67904;SDS011;54709;43.614;1.576;2023-01-08T11:01:24;13.25;;;6.18;;
67904;SDS011;54709;43.614;1.576;2023-01-08T11:03:57;17.60;;;6.70;;
67904;SDS011;54709;43.614;1.576;2023-01-08T11:06:30;11.73;;;6.30;;
67904;SDS011;54709;43.614;1.576;2023-01-08T11:09:00;13.70;;;5.95;;
67904;SDS011;54709;43.614;1.576;2023-01-08T11:11:38;14.80;;;6.82;;
67904;SDS011;54709;43.614;1.576;2023-01-08T11:14:05;13.35;;;5.95;;
67904;SDS011;54709;43.614;1.576;2023-01-08T11:16:38;12.70;;;6.05;;
67904;SDS011;54709;43.614;1.576;2023-01-08T11:19:04;15.80;;;5.63;;
67904;SDS011;54709;43.614;1.576;2023-01-08T11:21:37;12.25;;;5.63;;
67904;SDS011;54709;43.614;1.576;2023-01-08T11:25:04;14.50;;;5.97;;
67904;SDS011;54709;43.614;1.576;2023-01-08T11:37:26;16.30;;;5.45;;
67904;SDS011;54709;43.614;1.576;2023-01-08T11:39:53;18.77;;;6.00;;
67904;SDS011;54709;43.614;1.576;2023-01-08T11:45:27;16.13;;;5.55;;
67904;SDS011;54709;43.614;1.576;2023-01-08T11:50:48;13.25;;;5.30;;
67904;SDS011;54709;43.614;1.576;2023-01-08T11:53:23;14.50;;;5.20;;
67904;SDS011;54709;43.614;1.576;2023-01-08T12:01:31;11.57;;;4.72;;
67904;SDS011;54709;43.614;1.576;2023-01-08T12:04:03;11.75;;;4.38;;
67904;SDS011;54709;43.614;1.576;2023-01-08T12:22:43;12.82;;;5.10;;
67904;SDS011;54709;43.614;1.576;2023-01-08T12:25:19;16.15;;;5.05;;
67904;SDS011;54709;43.614;1.576;2023-01-08T12:28:09;18.98;;;5.63;;
67904;SDS011;54709;43.614;1.576;2023-01-08T12:31:19;19.83;;;5.63;;
67904;SDS011;54709;43.614;1.576;2023-01-08T12:36:48;12.82;;;4.75;;
67904;SDS011;54709;43.614;1.576;2023-01-08T12:39:17;14.15;;;4.80;;
67904;SDS011;54709;43.614;1.576;2023-01-08T12:41:46;15.65;;;4.60;;
67904;SDS011;54709;43.614;1.576;2023-01-08T12:44:12;11.32;;;4.70;;
67904;SDS011;54709;43.614;1.576;2023-01-08T12:46:43;13.07;;;4.93;;
67904;SDS011;54709;43.614;1.576;2023-01-08T12:49:19;13.77;;;4.40;;
67904;SDS011;54709;43.614;1.576;2023-01-08T12:57:33;13.57;;;5.13;;
67904;SDS011;54709;43.614;1.576;2023-01-08T13:00:24;14.70;;;4.65;;
67904;SDS011;54709;43.614;1.576;2023-01-08T13:02:59;11.18;;;4.80;;
67904;SDS011;54709;43.614;1.576;2023-01-08T13:07:53;10.88;;;4.53;;
67904;SDS011;54709;43.614;1.576;2023-01-08T13:12:50;13.30;;;4.40;;
67904;SDS011;54709;43.614;1.576;2023-01-08T13:15:18;12.30;;;4.10;;
67904;SDS011;54709;43.614;1.576;2023-01-08T13:17:49;14.18;;;5.78;;
67904;SDS011;54709;43.614;1.576;2023-01-08T13:20:19;11.88;;;4.70;;
67904;SDS011;54709;43.614;1.576;2023-01-08T13:22:50;12.35;;;4.32;;
67904;SDS011;54709;43.614;1.576;2023-01-08T13:27:44;15.90;;;3.97;;
67904;SDS011;54709;43.614;1.576;2023-01-08T13:35:29;13.93;;;3.70;;
67904;SDS011;54709;43.614;1.576;2023-01-08T13:38:15;15.32;;;4.28;;
67904;SDS011;54709;43.614;1.576;2023-01-08T13:43:11;13.45;;;3.88;;
67904;SDS011;54709;43.614;1.576;2023-01-08T13:45:42;13.60;;;6.70;;
67904;SDS011;54709;43.614;1.576;2023-01-08T13:48:24;13.65;;;5.82;;
67904;SDS011;54709;43.614;1.576;2023-01-08T13:50:51;16.83;;;8.35;;
67904;SDS011;54709;43.614;1.576;2023-01-08T13:53:16;17.92;;;9.15;;
67904;SDS011;54709;43.614;1.576;2023-01-08T13:55:46;18.15;;;4.50;;
67904;SDS011;54709;43.614;1.576;2023-01-08T13:58:19;13.05;;;4.85;;
67904;SDS011;54709;43.614;1.576;2023-01-08T14:00:50;12.05;;;4.40;;
67904;SDS011;54709;43.614;1.576;2023-01-08T14:03:27;15.40;;;7.43;;
67904;SDS011;54709;43.614;1.576;2023-01-08T14:06:16;16.88;;;9.23;;
67904;SDS011;54709;43.614;1.576;2023-01-08T14:08:51;12.88;;;4.78;;
67904;SDS011;54709;43.614;1.576;2023-01-08T14:11:26;11.18;;;4.63;;
67904;SDS011;54709;43.614;1.576;2023-01-08T14:13:53;16.08;;;6.13;;
67904;SDS011;54709;43.614;1.576;2023-01-08T14:16:19;15.75;;;5.70;;
67904;SDS011;54709;43.614;1.576;2023-01-08T14:18:45;13.32;;;5.10;;
67904;SDS011;54709;43.614;1.576;2023-01-08T14:21:11;15.90;;;4.93;;
67904;SDS011;54709;43.614;1.576;2023-01-08T14:23:44;15.90;;;6.93;;
67904;SDS011;54709;43.614;1.576;2023-01-08T14:26:22;13.50;;;6.30;;
67904;SDS011;54709;43.614;1.576;2023-01-08T14:29:00;18.50;;;8.23;;
67904;SDS011;54709;43.614;1.576;2023-01-08T14:31:27;12.65;;;6.22;;
67904;SDS011;54709;43.614;1.576;2023-01-08T14:33:53;13.98;;;5.82;;
67904;SDS011;54709;43.614;1.576;2023-01-08T14:36:20;16.15;;;8.48;;
67904;SDS011;54709;43.614;1.576;2023-01-08T14:38:46;14.10;;;5.55;;
67904;SDS011;54709;43.614;1.576;2023-01-08T14:41:15;12.32;;;5.50;;
67904;SDS011;54709;43.614;1.576;2023-01-08T14:43:44;16.55;;;7.05;;
67904;SDS011;54709;43.614;1.576;2023-01-08T14:48:52;13.82;;;6.10;;
67904;SDS011;54709;43.614;1.576;2023-01-08T14:51:22;16.67;;;6.75;;
67904;SDS011;54709;43.614;1.576;2023-01-08T14:53:50;13.35;;;6.00;;
67904;SDS011;54709;43.614;1.576;2023-01-08T14:56:18;18.60;;;6.55;;
67904;SDS011;54709;43.614;1.576;2023-01-08T14:58:46;17.10;;;6.38;;
67904;SDS011;54709;43.614;1.576;2023-01-08T15:01:19;16.98;;;6.80;;
67904;SDS011;54709;43.614;1.576;2023-01-08T15:03:47;15.35;;;6.38;;
67904;SDS011;54709;43.614;1.576;2023-01-08T15:06:23;21.67;;;10.23;;
67904;SDS011;54709;43.614;1.576;2023-01-08T15:08:52;23.17;;;9.38;;
67904;SDS011;54709;43.614;1.576;2023-01-08T15:13:43;26.63;;;16.05;;
67904;SDS011;54709;43.614;1.576;2023-01-08T15:16:10;24.80;;;13.10;;
67904;SDS011;54709;43.614;1.576;2023-01-08T15:18:40;20.75;;;7.93;;
67904;SDS011;54709;43.614;1.576;2023-01-08T15:21:26;18.73;;;7.90;;
67904;SDS011;54709;43.614;1.576;2023-01-08T15:23:52;19.55;;;7.75;;
67904;SDS011;54709;43.614;1.576;2023-01-08T15:26:19;23.35;;;10.30;;
67904;SDS011;54709;43.614;1.576;2023-01-08T15:31:30;17.00;;;9.10;;
67904;SDS011;54709;43.614;1.576;2023-01-08T15:33:58;26.08;;;10.50;;
67904;SDS011;54709;43.614;1.576;2023-01-08T15:36:24;14.55;;;7.50;;
67904;SDS011;54709;43.614;1.576;2023-01-08T15:38:50;16.45;;;5.90;;
67904;SDS011;54709;43.614;1.576;2023-01-08T15:41:20;14.00;;;6.20;;
67904;SDS011;54709;43.614;1.576;2023-01-08T15:44:05;16.17;;;8.00;;
67904;SDS011;54709;43.614;1.576;2023-01-08T15:46:31;18.73;;;6.00;;
67904;SDS011;54709;43.614;1.576;2023-01-08T15:48:56;15.35;;;5.53;;
67904;SDS011;54709;43.614;1.576;2023-01-08T15:51:22;16.98;;;5.30;;
67904;SDS011;54709;43.614;1.576;2023-01-08T15:53:48;15.55;;;4.93;;
67904;SDS011;54709;43.614;1.576;2023-01-08T15:56:13;27.95;;;14.63;;
67904;SDS011;54709;43.614;1.576;2023-01-08T15:58:39;14.73;;;6.13;;
67904;SDS011;54709;43.614;1.576;2023-01-08T16:01:04;17.25;;;7.82;;
67904;SDS011;54709;43.614;1.576;2023-01-08T16:03:29;21.80;;;8.95;;
67904;SDS011;54709;43.614;1.576;2023-01-08T16:05:55;21.15;;;10.35;;
67904;SDS011;54709;43.614;1.576;2023-01-08T16:08:20;19.95;;;10.45;;
67904;SDS011;54709;43.614;1.576;2023-01-08T16:10:52;24.50;;;12.85;;
67904;SDS011;54709;43.614;1.576;2023-01-08T16:13:17;23.50;;;11.95;;
67904;SDS011;54709;43.614;1.576;2023-01-08T16:15:43;25.67;;;13.05;;
67904;SDS011;54709;43.614;1.576;2023-01-08T16:18:08;17.77;;;10.05;;
67904;SDS011;54709;43.614;1.576;2023-01-08T16:20:34;20.58;;;10.35;;
67904;SDS011;54709;43.614;1.576;2023-01-08T16:22:59;21.40;;;11.73;;